sensor_id;sensor_type;location;lat;lon;timestamp;P1;durP1;ratioP1;P2;durP2;ratioP2
45694;SDS011;31408;45.468;9.124;2024-02-15T00:02:20;28.20;;;11.63;;
45694;SDS011;31408;45.468;9.124;2024-02-15T00:04:45;25.98;;;13.00;;
45694;SDS011;31408;45.468;9.124;2024-02-15T00:07:10;22.33;;;10.15;;
45694;SDS011;31408;45.468;9.124;2024-02-15T00:09:36;22.92;;;11.90;;
45694;SDS011;31408;45.468;9.124;2024-02-15T00:12:01;24.70;;;11.70;;
45694;SDS011;31408;45.468;9.124;2024-02-15T00:14:27;23.92;;;11.38;;
45694;SDS011;31408;45.468;9.124;2024-02-15T00:16:56;20.75;;;10.88;;
45694;SDS011;31408;45.468;9.124;2024-02-15T00:19:22;28.55;;;11.32;;
45694;SDS011;31408;45.468;9.124;2024-02-15T00:21:48;24.65;;;11.10;;
45694;SDS011;31408;45.468;9.124;2024-02-15T00:24:13;19.50;;;10.88;;
45694;SDS011;31408;45.468;9.124;2024-02-15T00:26:42;25.48;;;12.15;;
45694;SDS011;31408;45.468;9.124;2024-02-15T00:29:08;26.23;;;12.45;;
45694;SDS011;31408;45.468;9.124;2024-02-15T00:31:33;27.73;;;10.43;;
45694;SDS011;31408;45.468;9.124;2024-02-15T00:33:58;23.92;;;11.90;;
45694;SDS011;31408;45.468;9.124;2024-02-15T00:36:27;23.25;;;11.93;;
45694;SDS011;31408;45.468;9.124;2024-02-15T00:38:53;25.08;;;12.40;;
45694;SDS011;31408;45.468;9.124;2024-02-15T00:41:18;23.45;;;11.48;;
45694;SDS011;31408;45.468;9.124;2024-02-15T00:43:45;24.95;;;11.95;;
45694;SDS011;31408;45.468;9.124;2024-02-15T00:46:10;25.73;;;12.00;;
45694;SDS011;31408;45.468;9.124;2024-02-15T00:48:35;25.88;;;12.63;;
45694;SDS011;31408;45.468;9.124;2024-02-15T00:51:01;27.35;;;12.82;;
45694;SDS011;31408;45.468;9.124;2024-02-15T00:53:26;21.27;;;11.45;;
45694;SDS011;31408;45.468;9.124;2024-02-15T00:55:51;24.48;;;11.63;;
45694;SDS011;31408;45.468;9.124;2024-02-15T00:58:17;27.40;;;13.90;;
45694;SDS011;31408;45.468;9.124;2024-02-15T01:00:42;23.55;;;11.68;;
45694;SDS011;31408;45.468;9.124;2024-02-15T01:03:08;29.30;;;13.25;;
45694;SDS011;31408;45.468;9.124;2024-02-15T01:05:33;23.65;;;11.90;;
45694;SDS011;31408;45.468;9.124;2024-02-15T01:07:59;27.85;;;13.30;;
45694;SDS011;31408;45.468;9.124;2024-02-15T01:10:25;26.80;;;12.93;;
45694;SDS011;31408;45.468;9.124;2024-02-15T01:12:51;22.80;;;11.20;;
45694;SDS011;31408;45.468;9.124;2024-02-15T01:15:16;20.42;;;11.65;;
45694;SDS011;31408;45.468;9.124;2024-02-15T01:17:43;29.10;;;13.77;;
45694;SDS011;31408;45.468;9.124;2024-02-15T01:20:09;29.73;;;13.35;;
45694;SDS011;31408;45.468;9.124;2024-02-15T01:22:35;25.33;;;10.80;;
45694;SDS011;31408;45.468;9.124;2024-02-15T01:25:01;28.15;;;12.93;;
45694;SDS011;31408;45.468;9.124;2024-02-15T01:27:26;27.80;;;12.38;;
45694;SDS011;31408;45.468;9.124;2024-02-15T01:29:55;24.45;;;11.60;;
45694;SDS011;31408;45.468;9.124;2024-02-15T01:32:20;26.92;;;12.60;;
45694;SDS011;31408;45.468;9.124;2024-02-15T01:34:45;23.67;;;12.82;;
45694;SDS011;31408;45.468;9.124;2024-02-15T01:37:11;25.75;;;13.18;;
45694;SDS011;31408;45.468;9.124;2024-02-15T01:39:36;25.98;;;11.93;;
45694;SDS011;31408;45.468;9.124;2024-02-15T01:42:01;23.13;;;12.20;;
45694;SDS011;31408;45.468;9.124;2024-02-15T01:44:28;27.35;;;11.20;;
45694;SDS011;31408;45.468;9.124;2024-02-15T01:46:53;28.08;;;14.57;;
45694;SDS011;31408;45.468;9.124;2024-02-15T01:49:22;28.08;;;13.27;;
45694;SDS011;31408;45.468;9.124;2024-02-15T01:51:49;27.23;;;13.93;;
45694;SDS011;31408;45.468;9.124;2024-02-15T01:54:14;27.90;;;13.13;;
45694;SDS011;31408;45.468;9.124;2024-02-15T01:56:43;31.52;;;12.90;;
45694;SDS011;31408;45.468;9.124;2024-02-15T01:59:08;33.13;;;13.13;;
45694;SDS011;31408;45.468;9.124;2024-02-15T02:01:35;27.35;;;13.15;;
45694;SDS011;31408;45.468;9.124;2024-02-15T02:04:00;35.40;;;14.32;;
45694;SDS011;31408;45.468;9.124;2024-02-15T02:06:26;27.23;;;14.43;;
45694;SDS011;31408;45.468;9.124;2024-02-15T02:08:52;31.02;;;15.00;;
45694;SDS011;31408;45.468;9.124;2024-02-15T02:11:18;30.45;;;14.65;;
45694;SDS011;31408;45.468;9.124;2024-02-15T02:13:43;25.48;;;13.05;;
45694;SDS011;31408;45.468;9.124;2024-02-15T02:16:25;27.92;;;13.85;;
45694;SDS011;31408;45.468;9.124;2024-02-15T02:18:51;25.38;;;13.10;;
45694;SDS011;31408;45.468;9.124;2024-02-15T02:21:16;28.50;;;15.05;;
45694;SDS011;31408;45.468;9.124;2024-02-15T02:23:42;28.20;;;14.77;;
45694;SDS011;31408;45.468;9.124;2024-02-15T02:26:07;32.03;;;16.60;;
45694;SDS011;31408;45.468;9.124;2024-02-15T02:28:35;34.33;;;15.88;;
45694;SDS011;31408;45.468;9.124;2024-02-15T02:31:01;27.45;;;13.55;;
45694;SDS011;31408;45.468;9.124;2024-02-15T02:33:26;31.40;;;15.93;;
45694;SDS011;31408;45.468;9.124;2024-02-15T02:35:54;37.42;;;15.55;;
45694;SDS011;31408;45.468;9.124;2024-02-15T02:38:19;31.00;;;16.30;;
45694;SDS011;31408;45.468;9.124;2024-02-15T02:40:45;32.55;;;17.23;;
45694;SDS011;31408;45.468;9.124;2024-02-15T02:43:10;32.50;;;14.57;;
45694;SDS011;31408;45.468;9.124;2024-02-15T02:45:36;29.55;;;14.93;;
45694;SDS011;31408;45.468;9.124;2024-02-15T02:48:01;33.67;;;15.43;;
45694;SDS011;31408;45.468;9.124;2024-02-15T02:50:26;28.92;;;15.25;;
45694;SDS011;31408;45.468;9.124;2024-02-15T02:52:52;28.88;;;13.98;;
45694;SDS011;31408;45.468;9.124;2024-02-15T02:55:17;28.40;;;15.68;;
45694;SDS011;31408;45.468;9.124;2024-02-15T02:57:42;33.72;;;15.52;;
45694;SDS011;31408;45.468;9.124;2024-02-15T03:00:09;34.00;;;15.32;;
45694;SDS011;31408;45.468;9.124;2024-02-15T03:02:38;34.25;;;16.13;;
45694;SDS011;31408;45.468;9.124;2024-02-15T03:05:04;36.45;;;16.95;;
45694;SDS011;31408;45.468;9.124;2024-02-15T03:07:32;29.80;;;15.80;;
45694;SDS011;31408;45.468;9.124;2024-02-15T03:09:57;25.52;;;15.30;;
45694;SDS011;31408;45.468;9.124;2024-02-15T03:12:23;28.52;;;13.80;;
45694;SDS011;31408;45.468;9.124;2024-02-15T03:14:48;29.83;;;15.63;;
45694;SDS011;31408;45.468;9.124;2024-02-15T03:17:13;35.72;;;18.08;;
45694;SDS011;31408;45.468;9.124;2024-02-15T03:19:39;32.95;;;16.48;;
45694;SDS011;31408;45.468;9.124;2024-02-15T03:22:04;28.10;;;15.07;;
45694;SDS011;31408;45.468;9.124;2024-02-15T03:24:29;32.50;;;16.17;;
45694;SDS011;31408;45.468;9.124;2024-02-15T03:26:54;36.38;;;14.75;;
45694;SDS011;31408;45.468;9.124;2024-02-15T03:29:20;24.52;;;13.77;;
45694;SDS011;31408;45.468;9.124;2024-02-15T03:31:46;31.88;;;15.65;;
45694;SDS011;31408;45.468;9.124;2024-02-15T03:34:14;30.15;;;14.60;;
45694;SDS011;31408;45.468;9.124;2024-02-15T03:36:41;30.75;;;15.48;;
45694;SDS011;31408;45.468;9.124;2024-02-15T03:39:06;32.65;;;14.93;;
45694;SDS011;31408;45.468;9.124;2024-02-15T03:41:33;32.88;;;17.00;;
45694;SDS011;31408;45.468;9.124;2024-02-15T03:43:58;39.20;;;17.27;;
45694;SDS011;31408;45.468;9.124;2024-02-15T03:46:25;28.20;;;16.50;;
45694;SDS011;31408;45.468;9.124;2024-02-15T03:48:51;31.67;;;16.08;;
45694;SDS011;31408;45.468;9.124;2024-02-15T03:51:17;30.38;;;15.68;;
45694;SDS011;31408;45.468;9.124;2024-02-15T03:53:45;31.30;;;14.57;;
45694;SDS011;31408;45.468;9.124;2024-02-15T03:56:11;29.73;;;15.13;;
45694;SDS011;31408;45.468;9.124;2024-02-15T03:58:37;23.27;;;13.13;;
45694;SDS011;31408;45.468;9.124;2024-02-15T04:01:03;29.90;;;15.45;;
45694;SDS011;31408;45.468;9.124;2024-02-15T04:03:32;32.83;;;15.35;;
45694;SDS011;31408;45.468;9.124;2024-02-15T04:05:57;36.75;;;15.88;;
45694;SDS011;31408;45.468;9.124;2024-02-15T04:08:23;28.17;;;14.38;;
45694;SDS011;31408;45.468;9.124;2024-02-15T04:10:48;31.08;;;15.73;;
45694;SDS011;31408;45.468;9.124;2024-02-15T04:13:14;32.10;;;14.68;;
45694;SDS011;31408;45.468;9.124;2024-02-15T04:15:39;32.03;;;16.38;;
45694;SDS011;31408;45.468;9.124;2024-02-15T04:18:04;31.58;;;15.20;;
45694;SDS011;31408;45.468;9.124;2024-02-15T04:20:30;39.75;;;16.67;;
45694;SDS011;31408;45.468;9.124;2024-02-15T04:22:56;30.65;;;14.98;;
45694;SDS011;31408;45.468;9.124;2024-02-15T04:25:23;37.00;;;16.85;;
45694;SDS011;31408;45.468;9.124;2024-02-15T04:27:53;38.13;;;14.55;;
45694;SDS011;31408;45.468;9.124;2024-02-15T04:30:18;36.72;;;17.08;;
45694;SDS011;31408;45.468;9.124;2024-02-15T04:32:44;27.23;;;16.92;;
45694;SDS011;31408;45.468;9.124;2024-02-15T04:35:09;30.10;;;15.57;;
45694;SDS011;31408;45.468;9.124;2024-02-15T04:37:35;26.40;;;14.23;;
45694;SDS011;31408;45.468;9.124;2024-02-15T04:40:02;33.80;;;15.77;;
45694;SDS011;31408;45.468;9.124;2024-02-15T04:42:35;24.80;;;13.95;;
45694;SDS011;31408;45.468;9.124;2024-02-15T04:45:02;34.20;;;16.95;;
45694;SDS011;31408;45.468;9.124;2024-02-15T04:47:28;29.30;;;16.02;;
45694;SDS011;31408;45.468;9.124;2024-02-15T04:49:55;29.23;;;15.18;;
45694;SDS011;31408;45.468;9.124;2024-02-15T04:52:20;27.25;;;14.65;;
45694;SDS011;31408;45.468;9.124;2024-02-15T04:54:48;37.97;;;15.65;;
45694;SDS011;31408;45.468;9.124;2024-02-15T04:57:14;28.40;;;14.90;;
45694;SDS011;31408;45.468;9.124;2024-02-15T04:59:39;34.08;;;15.57;;
45694;SDS011;31408;45.468;9.124;2024-02-15T05:02:05;29.30;;;14.15;;
45694;SDS011;31408;45.468;9.124;2024-02-15T05:04:30;29.38;;;15.90;;
45694;SDS011;31408;45.468;9.124;2024-02-15T05:06:55;30.98;;;16.63;;
45694;SDS011;31408;45.468;9.124;2024-02-15T05:09:21;28.40;;;16.05;;
45694;SDS011;31408;45.468;9.124;2024-02-15T05:11:48;28.20;;;14.73;;
45694;SDS011;31408;45.468;9.124;2024-02-15T05:14:16;30.67;;;15.90;;
45694;SDS011;31408;45.468;9.124;2024-02-15T05:16:45;28.25;;;15.55;;
45694;SDS011;31408;45.468;9.124;2024-02-15T05:19:13;25.13;;;13.57;;
45694;SDS011;31408;45.468;9.124;2024-02-15T05:21:38;31.73;;;16.10;;
45694;SDS011;31408;45.468;9.124;2024-02-15T05:24:04;31.23;;;13.95;;
45694;SDS011;31408;45.468;9.124;2024-02-15T05:26:30;31.10;;;15.02;;
45694;SDS011;31408;45.468;9.124;2024-02-15T05:28:55;29.73;;;14.73;;
45694;SDS011;31408;45.468;9.124;2024-02-15T05:31:21;25.88;;;14.25;;
45694;SDS011;31408;45.468;9.124;2024-02-15T05:33:48;26.92;;;13.25;;
45694;SDS011;31408;45.468;9.124;2024-02-15T05:36:14;32.38;;;13.90;;
45694;SDS011;31408;45.468;9.124;2024-02-15T05:38:40;30.08;;;14.65;;
45694;SDS011;31408;45.468;9.124;2024-02-15T05:41:05;25.80;;;14.07;;
45694;SDS011;31408;45.468;9.124;2024-02-15T05:43:32;27.35;;;12.48;;
45694;SDS011;31408;45.468;9.124;2024-02-15T05:45:58;22.75;;;11.63;;
45694;SDS011;31408;45.468;9.124;2024-02-15T05:48:26;31.23;;;15.00;;
45694;SDS011;31408;45.468;9.124;2024-02-15T05:50:51;25.95;;;13.00;;
45694;SDS011;31408;45.468;9.124;2024-02-15T05:53:19;24.88;;;12.60;;
45694;SDS011;31408;45.468;9.124;2024-02-15T05:55:44;24.45;;;12.35;;
45694;SDS011;31408;45.468;9.124;2024-02-15T05:58:10;29.23;;;12.70;;
45694;SDS011;31408;45.468;9.124;2024-02-15T06:00:37;26.60;;;12.73;;
45694;SDS011;31408;45.468;9.124;2024-02-15T06:03:04;28.75;;;13.35;;
45694;SDS011;31408;45.468;9.124;2024-02-15T06:05:29;27.88;;;14.25;;
45694;SDS011;31408;45.468;9.124;2024-02-15T06:07:54;31.42;;;14.65;;
45694;SDS011;31408;45.468;9.124;2024-02-15T06:10:20;24.90;;;13.57;;
45694;SDS011;31408;45.468;9.124;2024-02-15T06:12:45;27.33;;;13.65;;
45694;SDS011;31408;45.468;9.124;2024-02-15T06:15:11;24.33;;;12.20;;
45694;SDS011;31408;45.468;9.124;2024-02-15T06:17:42;27.00;;;12.18;;
45694;SDS011;31408;45.468;9.124;2024-02-15T06:20:12;24.60;;;13.38;;
45694;SDS011;31408;45.468;9.124;2024-02-15T06:22:40;26.80;;;14.20;;
45694;SDS011;31408;45.468;9.124;2024-02-15T06:25:05;23.23;;;12.02;;
45694;SDS011;31408;45.468;9.124;2024-02-15T06:27:31;27.17;;;12.30;;
45694;SDS011;31408;45.468;9.124;2024-02-15T06:29:57;24.85;;;11.75;;
45694;SDS011;31408;45.468;9.124;2024-02-15T06:32:41;30.35;;;14.85;;
45694;SDS011;31408;45.468;9.124;2024-02-15T06:35:25;31.88;;;13.05;;
45694;SDS011;31408;45.468;9.124;2024-02-15T06:38:09;26.77;;;13.07;;
45694;SDS011;31408;45.468;9.124;2024-02-15T06:40:53;25.63;;;13.40;;
45694;SDS011;31408;45.468;9.124;2024-02-15T06:43:19;25.90;;;13.63;;
45694;SDS011;31408;45.468;9.124;2024-02-15T06:45:44;33.85;;;15.82;;
45694;SDS011;31408;45.468;9.124;2024-02-15T06:48:12;36.28;;;16.15;;
45694;SDS011;31408;45.468;9.124;2024-02-15T06:50:37;27.67;;;14.23;;
45694;SDS011;31408;45.468;9.124;2024-02-15T06:53:03;29.52;;;14.68;;
45694;SDS011;31408;45.468;9.124;2024-02-15T06:55:28;31.13;;;13.80;;
45694;SDS011;31408;45.468;9.124;2024-02-15T06:57:53;27.65;;;11.93;;
45694;SDS011;31408;45.468;9.124;2024-02-15T07:00:20;26.92;;;14.38;;
45694;SDS011;31408;45.468;9.124;2024-02-15T07:02:45;29.50;;;14.25;;
45694;SDS011;31408;45.468;9.124;2024-02-15T07:05:13;22.38;;;12.50;;
45694;SDS011;31408;45.468;9.124;2024-02-15T07:07:38;25.77;;;13.07;;
45694;SDS011;31408;45.468;9.124;2024-02-15T07:10:04;29.08;;;12.77;;
45694;SDS011;31408;45.468;9.124;2024-02-15T07:12:30;24.58;;;12.77;;
45694;SDS011;31408;45.468;9.124;2024-02-15T07:14:57;22.27;;;11.60;;
45694;SDS011;31408;45.468;9.124;2024-02-15T07:17:23;23.27;;;12.20;;
45694;SDS011;31408;45.468;9.124;2024-02-15T07:19:48;24.58;;;12.13;;
45694;SDS011;31408;45.468;9.124;2024-02-15T07:22:14;26.33;;;12.88;;
45694;SDS011;31408;45.468;9.124;2024-02-15T07:24:40;30.38;;;15.00;;
45694;SDS011;31408;45.468;9.124;2024-02-15T07:27:05;24.65;;;12.43;;
45694;SDS011;31408;45.468;9.124;2024-02-15T07:29:30;25.00;;;13.68;;
45694;SDS011;31408;45.468;9.124;2024-02-15T07:32:02;24.45;;;12.63;;
45694;SDS011;31408;45.468;9.124;2024-02-15T07:34:32;25.38;;;12.30;;
45694;SDS011;31408;45.468;9.124;2024-02-15T07:36:58;23.55;;;11.75;;
45694;SDS011;31408;45.468;9.124;2024-02-15T07:39:23;23.73;;;12.27;;
45694;SDS011;31408;45.468;9.124;2024-02-15T07:41:56;24.30;;;12.45;;
45694;SDS011;31408;45.468;9.124;2024-02-15T07:44:23;26.27;;;12.52;;
45694;SDS011;31408;45.468;9.124;2024-02-15T07:46:48;24.35;;;12.73;;
45694;SDS011;31408;45.468;9.124;2024-02-15T07:49:15;25.35;;;12.93;;
45694;SDS011;31408;45.468;9.124;2024-02-15T07:51:42;27.65;;;13.88;;
45694;SDS011;31408;45.468;9.124;2024-02-15T07:54:08;23.15;;;11.68;;
45694;SDS011;31408;45.468;9.124;2024-02-15T07:56:34;22.45;;;11.65;;
45694;SDS011;31408;45.468;9.124;2024-02-15T07:59:00;24.50;;;13.55;;
45694;SDS011;31408;45.468;9.124;2024-02-15T08:01:25;23.02;;;13.07;;
45694;SDS011;31408;45.468;9.124;2024-02-15T08:03:51;24.67;;;13.52;;
45694;SDS011;31408;45.468;9.124;2024-02-15T08:06:17;30.08;;;14.32;;
45694;SDS011;31408;45.468;9.124;2024-02-15T08:08:46;26.27;;;13.00;;
45694;SDS011;31408;45.468;9.124;2024-02-15T08:11:12;25.80;;;13.50;;
45694;SDS011;31408;45.468;9.124;2024-02-15T08:16:06;25.00;;;11.80;;
45694;SDS011;31408;45.468;9.124;2024-02-15T08:18:32;24.08;;;14.15;;
45694;SDS011;31408;45.468;9.124;2024-02-15T08:20:58;24.73;;;12.98;;
45694;SDS011;31408;45.468;9.124;2024-02-15T08:23:23;27.23;;;13.68;;
45694;SDS011;31408;45.468;9.124;2024-02-15T08:25:49;28.92;;;14.05;;
45694;SDS011;31408;45.468;9.124;2024-02-15T08:28:14;27.85;;;13.55;;
45694;SDS011;31408;45.468;9.124;2024-02-15T08:30:40;30.27;;;15.20;;
45694;SDS011;31408;45.468;9.124;2024-02-15T08:33:06;27.27;;;14.88;;
45694;SDS011;31408;45.468;9.124;2024-02-15T08:35:32;29.08;;;13.45;;
45694;SDS011;31408;45.468;9.124;2024-02-15T08:37:57;30.60;;;15.77;;
45694;SDS011;31408;45.468;9.124;2024-02-15T08:40:22;27.63;;;13.88;;
45694;SDS011;31408;45.468;9.124;2024-02-15T08:42:50;30.13;;;16.73;;
45694;SDS011;31408;45.468;9.124;2024-02-15T08:45:15;29.15;;;15.38;;
45694;SDS011;31408;45.468;9.124;2024-02-15T08:47:41;37.83;;;18.13;;
45694;SDS011;31408;45.468;9.124;2024-02-15T08:50:07;29.20;;;15.65;;
45694;SDS011;31408;45.468;9.124;2024-02-15T08:52:35;32.25;;;15.43;;
45694;SDS011;31408;45.468;9.124;2024-02-15T08:55:06;31.10;;;17.73;;
45694;SDS011;31408;45.468;9.124;2024-02-15T08:57:32;33.80;;;17.05;;
45694;SDS011;31408;45.468;9.124;2024-02-15T08:59:57;34.95;;;17.92;;
45694;SDS011;31408;45.468;9.124;2024-02-15T09:02:23;38.33;;;17.33;;
45694;SDS011;31408;45.468;9.124;2024-02-15T09:04:48;29.52;;;16.75;;
45694;SDS011;31408;45.468;9.124;2024-02-15T09:07:14;36.83;;;17.85;;
45694;SDS011;31408;45.468;9.124;2024-02-15T09:09:39;33.10;;;16.92;;
45694;SDS011;31408;45.468;9.124;2024-02-15T09:12:04;37.80;;;17.73;;
45694;SDS011;31408;45.468;9.124;2024-02-15T09:14:34;34.92;;;17.67;;
45694;SDS011;31408;45.468;9.124;2024-02-15T09:17:01;33.85;;;17.35;;
45694;SDS011;31408;45.468;9.124;2024-02-15T09:19:32;33.20;;;17.15;;
45694;SDS011;31408;45.468;9.124;2024-02-15T09:21:58;36.72;;;19.48;;
45694;SDS011;31408;45.468;9.124;2024-02-15T09:24:23;33.95;;;17.60;;
45694;SDS011;31408;45.468;9.124;2024-02-15T09:26:50;33.17;;;17.20;;
45694;SDS011;31408;45.468;9.124;2024-02-15T09:29:15;32.22;;;16.52;;
45694;SDS011;31408;45.468;9.124;2024-02-15T09:31:41;35.35;;;18.70;;
45694;SDS011;31408;45.468;9.124;2024-02-15T09:34:06;34.15;;;17.83;;
45694;SDS011;31408;45.468;9.124;2024-02-15T09:36:35;33.78;;;18.30;;
45694;SDS011;31408;45.468;9.124;2024-02-15T09:39:03;35.05;;;18.80;;
45694;SDS011;31408;45.468;9.124;2024-02-15T09:41:28;33.95;;;18.33;;
45694;SDS011;31408;45.468;9.124;2024-02-15T09:43:54;36.08;;;17.83;;
45694;SDS011;31408;45.468;9.124;2024-02-15T09:46:19;35.45;;;17.92;;
45694;SDS011;31408;45.468;9.124;2024-02-15T09:48:46;31.92;;;18.25;;
45694;SDS011;31408;45.468;9.124;2024-02-15T09:51:14;34.33;;;18.38;;
45694;SDS011;31408;45.468;9.124;2024-02-15T09:53:40;31.83;;;17.92;;
45694;SDS011;31408;45.468;9.124;2024-02-15T09:56:06;31.23;;;20.05;;
45694;SDS011;31408;45.468;9.124;2024-02-15T09:58:31;37.45;;;21.80;;
45694;SDS011;31408;45.468;9.124;2024-02-15T10:01:01;39.45;;;21.38;;
45694;SDS011;31408;45.468;9.124;2024-02-15T10:03:29;37.47;;;21.02;;
45694;SDS011;31408;45.468;9.124;2024-02-15T10:05:56;34.75;;;18.98;;
45694;SDS011;31408;45.468;9.124;2024-02-15T10:08:22;38.13;;;20.15;;
45694;SDS011;31408;45.468;9.124;2024-02-15T10:11:11;43.35;;;22.13;;
45694;SDS011;31408;45.468;9.124;2024-02-15T10:13:36;37.75;;;19.60;;
45694;SDS011;31408;45.468;9.124;2024-02-15T10:16:14;36.25;;;20.60;;
45694;SDS011;31408;45.468;9.124;2024-02-15T10:18:40;38.65;;;22.88;;
45694;SDS011;31408;45.468;9.124;2024-02-15T10:21:05;38.35;;;20.75;;
45694;SDS011;31408;45.468;9.124;2024-02-15T10:23:30;43.08;;;21.95;;
45694;SDS011;31408;45.468;9.124;2024-02-15T10:25:56;36.53;;;20.50;;
45694;SDS011;31408;45.468;9.124;2024-02-15T10:28:23;38.33;;;21.38;;
45694;SDS011;31408;45.468;9.124;2024-02-15T10:30:49;37.13;;;20.48;;
45694;SDS011;31408;45.468;9.124;2024-02-15T10:33:18;36.22;;;21.25;;
45694;SDS011;31408;45.468;9.124;2024-02-15T10:35:47;40.45;;;22.25;;
45694;SDS011;31408;45.468;9.124;2024-02-15T10:38:12;39.33;;;21.60;;
45694;SDS011;31408;45.468;9.124;2024-02-15T10:40:38;34.83;;;20.15;;
45694;SDS011;31408;45.468;9.124;2024-02-15T10:43:06;38.03;;;20.60;;
45694;SDS011;31408;45.468;9.124;2024-02-15T10:45:32;37.90;;;19.45;;
45694;SDS011;31408;45.468;9.124;2024-02-15T10:47:58;39.72;;;21.75;;
45694;SDS011;31408;45.468;9.124;2024-02-15T10:50:24;44.30;;;22.05;;
45694;SDS011;31408;45.468;9.124;2024-02-15T10:52:56;38.47;;;21.85;;
45694;SDS011;31408;45.468;9.124;2024-02-15T10:57:53;41.75;;;25.08;;
45694;SDS011;31408;45.468;9.124;2024-02-15T11:00:21;43.85;;;23.15;;
45694;SDS011;31408;45.468;9.124;2024-02-15T11:03:00;40.72;;;21.35;;
45694;SDS011;31408;45.468;9.124;2024-02-15T11:05:27;37.95;;;20.98;;
45694;SDS011;31408;45.468;9.124;2024-02-15T11:07:54;42.22;;;20.77;;
45694;SDS011;31408;45.468;9.124;2024-02-15T11:10:20;44.72;;;22.48;;
45694;SDS011;31408;45.468;9.124;2024-02-15T11:12:46;41.75;;;21.95;;
45694;SDS011;31408;45.468;9.124;2024-02-15T11:15:12;42.80;;;23.08;;
45694;SDS011;31408;45.468;9.124;2024-02-15T11:17:58;39.35;;;20.45;;
45694;SDS011;31408;45.468;9.124;2024-02-15T11:22:59;39.58;;;21.83;;
45694;SDS011;31408;45.468;9.124;2024-02-15T11:25:37;37.22;;;20.67;;
45694;SDS011;31408;45.468;9.124;2024-02-15T11:30:48;40.78;;;21.70;;
45694;SDS011;31408;45.468;9.124;2024-02-15T11:33:33;49.75;;;21.63;;
45694;SDS011;31408;45.468;9.124;2024-02-15T11:36:05;36.70;;;21.80;;
45694;SDS011;31408;45.468;9.124;2024-02-15T11:38:30;40.90;;;20.63;;
45694;SDS011;31408;45.468;9.124;2024-02-15T11:46:12;33.63;;;20.48;;
45694;SDS011;31408;45.468;9.124;2024-02-15T11:48:38;39.55;;;21.80;;
45694;SDS011;31408;45.468;9.124;2024-02-15T11:51:07;37.33;;;21.55;;
45694;SDS011;31408;45.468;9.124;2024-02-15T11:53:33;39.97;;;21.80;;
45694;SDS011;31408;45.468;9.124;2024-02-15T11:56:01;38.25;;;20.05;;
45694;SDS011;31408;45.468;9.124;2024-02-15T11:58:29;40.95;;;22.75;;
45694;SDS011;31408;45.468;9.124;2024-02-15T12:01:11;44.85;;;22.05;;
45694;SDS011;31408;45.468;9.124;2024-02-15T12:03:54;34.10;;;19.92;;
45694;SDS011;31408;45.468;9.124;2024-02-15T12:06:38;39.70;;;21.55;;
45694;SDS011;31408;45.468;9.124;2024-02-15T12:09:22;39.80;;;20.42;;
45694;SDS011;31408;45.468;9.124;2024-02-15T12:12:06;35.15;;;20.90;;
45694;SDS011;31408;45.468;9.124;2024-02-15T12:14:57;41.70;;;22.33;;
45694;SDS011;31408;45.468;9.124;2024-02-15T12:17:41;43.67;;;21.83;;
45694;SDS011;31408;45.468;9.124;2024-02-15T12:20:25;42.13;;;22.55;;
45694;SDS011;31408;45.468;9.124;2024-02-15T12:22:51;39.33;;;22.08;;
45694;SDS011;31408;45.468;9.124;2024-02-15T12:25:17;38.63;;;22.00;;
45694;SDS011;31408;45.468;9.124;2024-02-15T12:27:46;38.80;;;21.30;;
45694;SDS011;31408;45.468;9.124;2024-02-15T12:30:15;40.80;;;24.25;;
45694;SDS011;31408;45.468;9.124;2024-02-15T12:32:40;45.70;;;22.98;;
45694;SDS011;31408;45.468;9.124;2024-02-15T12:35:13;43.50;;;21.55;;
45694;SDS011;31408;45.468;9.124;2024-02-15T12:37:48;37.13;;;21.83;;
45694;SDS011;31408;45.468;9.124;2024-02-15T12:40:17;43.65;;;21.77;;
45694;SDS011;31408;45.468;9.124;2024-02-15T12:42:43;44.20;;;24.75;;
45694;SDS011;31408;45.468;9.124;2024-02-15T12:45:16;48.97;;;24.05;;
45694;SDS011;31408;45.468;9.124;2024-02-15T12:47:46;46.10;;;23.08;;
45694;SDS011;31408;45.468;9.124;2024-02-15T12:50:15;43.85;;;22.48;;
45694;SDS011;31408;45.468;9.124;2024-02-15T12:52:41;50.03;;;24.13;;
45694;SDS011;31408;45.468;9.124;2024-02-15T12:55:12;43.78;;;24.20;;
45694;SDS011;31408;45.468;9.124;2024-02-15T12:57:39;50.13;;;24.60;;
45694;SDS011;31408;45.468;9.124;2024-02-15T13:00:11;41.65;;;24.13;;
45694;SDS011;31408;45.468;9.124;2024-02-15T13:02:39;40.00;;;24.42;;
45694;SDS011;31408;45.468;9.124;2024-02-15T13:05:05;44.92;;;26.70;;
45694;SDS011;31408;45.468;9.124;2024-02-15T13:07:30;46.75;;;23.85;;
45694;SDS011;31408;45.468;9.124;2024-02-15T13:09:56;35.55;;;20.15;;
45694;SDS011;31408;45.468;9.124;2024-02-15T13:12:22;41.78;;;24.05;;
45694;SDS011;31408;45.468;9.124;2024-02-15T13:14:48;49.10;;;25.42;;
45694;SDS011;31408;45.468;9.124;2024-02-15T13:17:15;43.17;;;23.27;;
45694;SDS011;31408;45.468;9.124;2024-02-15T13:19:44;45.65;;;23.90;;
45694;SDS011;31408;45.468;9.124;2024-02-15T13:22:09;44.03;;;24.45;;
45694;SDS011;31408;45.468;9.124;2024-02-15T13:24:35;42.70;;;24.08;;
45694;SDS011;31408;45.468;9.124;2024-02-15T13:27:04;41.28;;;23.73;;
45694;SDS011;31408;45.468;9.124;2024-02-15T13:29:29;43.42;;;23.80;;
45694;SDS011;31408;45.468;9.124;2024-02-15T13:31:59;45.58;;;23.48;;
45694;SDS011;31408;45.468;9.124;2024-02-15T13:34:25;45.25;;;25.23;;
45694;SDS011;31408;45.468;9.124;2024-02-15T13:36:50;43.63;;;24.70;;
45694;SDS011;31408;45.468;9.124;2024-02-15T13:39:15;44.17;;;24.42;;
45694;SDS011;31408;45.468;9.124;2024-02-15T13:41:41;39.10;;;22.17;;
45694;SDS011;31408;45.468;9.124;2024-02-15T13:44:06;44.03;;;22.38;;
45694;SDS011;31408;45.468;9.124;2024-02-15T13:46:32;45.83;;;24.88;;
45694;SDS011;31408;45.468;9.124;2024-02-15T13:48:57;46.95;;;25.95;;
45694;SDS011;31408;45.468;9.124;2024-02-15T13:51:23;43.53;;;25.50;;
45694;SDS011;31408;45.468;9.124;2024-02-15T13:53:49;39.42;;;23.98;;
45694;SDS011;31408;45.468;9.124;2024-02-15T13:56:15;39.72;;;22.63;;
45694;SDS011;31408;45.468;9.124;2024-02-15T13:58:41;40.45;;;23.38;;
45694;SDS011;31408;45.468;9.124;2024-02-15T14:01:06;46.88;;;25.70;;
45694;SDS011;31408;45.468;9.124;2024-02-15T14:03:32;35.78;;;21.35;;
45694;SDS011;31408;45.468;9.124;2024-02-15T14:05:59;41.90;;;23.42;;
45694;SDS011;31408;45.468;9.124;2024-02-15T14:08:25;42.92;;;24.65;;
45694;SDS011;31408;45.468;9.124;2024-02-15T14:10:50;44.05;;;24.13;;
45694;SDS011;31408;45.468;9.124;2024-02-15T14:13:16;35.35;;;20.95;;
45694;SDS011;31408;45.468;9.124;2024-02-15T14:15:41;37.33;;;20.73;;
45694;SDS011;31408;45.468;9.124;2024-02-15T14:18:08;44.55;;;23.75;;
45694;SDS011;31408;45.468;9.124;2024-02-15T14:20:43;39.53;;;22.23;;
45694;SDS011;31408;45.468;9.124;2024-02-15T14:23:09;39.78;;;22.45;;
45694;SDS011;31408;45.468;9.124;2024-02-15T14:25:41;40.58;;;21.73;;
45694;SDS011;31408;45.468;9.124;2024-02-15T14:28:07;36.35;;;19.33;;
45694;SDS011;31408;45.468;9.124;2024-02-15T14:30:33;40.08;;;20.75;;
45694;SDS011;31408;45.468;9.124;2024-02-15T14:33:17;42.72;;;22.17;;
45694;SDS011;31408;45.468;9.124;2024-02-15T14:35:44;39.90;;;21.08;;
45694;SDS011;31408;45.468;9.124;2024-02-15T14:38:10;34.05;;;18.75;;